Terminal Aerodrome Forecast
Issued by NWS

Home | Current Version | Previous Version | Text Only | Print | Product List | Glossary Off
Versions: 1 2 3 4 5 6 7 8 9 10 11 12 13 14 15 16 17 18 19 20

921
FTUS43 KICT 271131
TAFRSL
TAF
KRSL 271131Z 2712/2812 13008KT P6SM SCT006 BKN050
     FM271500 14012KT P6SM BKN020
     FM271800 15012KT P6SM VCTS BKN035CB
     FM280900 23009KT P6SM BKN020=

USA.gov is the U.S. government's official web portal to all federal, state and local government web resources and services.